createdAt,value
2022-08-25T00:02:00.475Z,33.50
2022-08-25T00:04:29.737Z,36.25
2022-08-25T00:07:02.099Z,40.17
2022-08-25T00:09:30.612Z,30.40
2022-08-25T00:11:57.892Z,26.45
2022-08-25T00:14:30.007Z,39.65
2022-08-25T00:16:57.524Z,38.47
2022-08-25T00:19:28.780Z,37.05
2022-08-25T00:21:56.403Z,40.97
2022-08-25T00:24:24.592Z,40.78
2022-08-25T00:26:55.176Z,34.00
2022-08-25T00:29:25.940Z,41.45
2022-08-25T00:31:54.598Z,36.20
2022-08-25T00:34:29.419Z,35.03
2022-08-25T00:36:56.759Z,35.28
2022-08-25T00:39:24.505Z,33.85
2022-08-25T00:41:56.692Z,41.17
2022-08-25T00:44:25.385Z,31.90
2022-08-25T00:46:56.383Z,36.05
2022-08-25T00:49:40.802Z,29.48
2022-08-25T00:52:12.193Z,26.13
2022-08-25T00:54:50.789Z,34.78
2022-08-25T00:57:34.136Z,33.38
2022-08-25T01:00:10.790Z,31.17
2022-08-25T01:02:38.579Z,30.42
2022-08-25T01:05:06.508Z,31.95
2022-08-25T01:07:33.922Z,38.58
2022-08-25T01:10:01.338Z,24.38
2022-08-25T01:12:30.535Z,35.22
2022-08-25T01:14:58.280Z,33.65
2022-08-25T01:17:28.208Z,30.55
2022-08-25T01:19:55.943Z,25.13
2022-08-25T01:22:26.825Z,33.72
2022-08-25T01:25:02.212Z,29.25
2022-08-25T01:27:30.601Z,28.23
2022-08-25T01:29:58.161Z,30.02
2022-08-25T01:32:25.268Z,31.02
2022-08-25T01:34:52.328Z,35.03
2022-08-25T01:37:20.769Z,29.02
2022-08-25T01:39:48.168Z,36.72
2022-08-25T01:42:15.132Z,36.45
2022-08-25T01:44:45.492Z,34.50
2022-08-25T01:47:13.896Z,26.48
2022-08-25T01:49:41.207Z,28.55
2022-08-25T01:52:40.475Z,31.65
2022-08-25T01:55:07.849Z,25.00
2022-08-25T01:57:34.837Z,41.35
2022-08-25T02:00:01.858Z,31.73
2022-08-25T02:05:11.686Z,32.05
2022-08-25T02:07:38.775Z,26.35
2022-08-25T02:10:07.591Z,36.45
2022-08-25T02:12:35.357Z,32.05
2022-08-25T02:15:22.448Z,33.88
2022-08-25T02:17:49.466Z,34.78
2022-08-25T02:20:16.757Z,31.73
2022-08-25T02:22:53.053Z,36.55
2022-08-25T02:25:24.013Z,24.83
2022-08-25T02:27:51.258Z,32.63
2022-08-25T02:30:18.486Z,28.20
2022-08-25T02:32:45.444Z,42.72
2022-08-25T02:35:13.848Z,35.47
2022-08-25T02:37:41.085Z,36.90
2022-08-25T02:40:08.974Z,27.63
2022-08-25T02:42:37.323Z,26.33
2022-08-25T02:45:05.044Z,28.75
2022-08-25T02:47:32.115Z,20.70
2022-08-25T02:49:59.626Z,27.10
2022-08-25T02:52:26.686Z,31.00
2022-08-25T02:54:54.105Z,26.27
2022-08-25T02:57:21.725Z,40.22
2022-08-25T02:59:48.842Z,26.20
2022-08-25T03:02:16.893Z,32.10
2022-08-25T03:04:44.247Z,31.42
2022-08-25T03:07:12.719Z,28.15
2022-08-25T03:09:39.803Z,30.73
2022-08-25T03:12:07.054Z,37.67
2022-08-25T03:14:33.946Z,32.33
2022-08-25T03:17:01.063Z,52.50
2022-08-25T03:19:28.062Z,30.55
2022-08-25T03:21:57.073Z,33.75
2022-08-25T03:24:24.346Z,29.45
2022-08-25T03:26:54.339Z,33.47
2022-08-25T03:29:26.717Z,29.92
2022-08-25T03:31:55.673Z,32.25
2022-08-25T03:34:23.195Z,27.17
2022-08-25T03:36:53.532Z,22.80
2022-08-25T03:39:23.559Z,25.55
2022-08-25T03:41:51.814Z,37.08
2022-08-25T03:44:20.655Z,36.72
2022-08-25T03:46:51.380Z,32.13
2022-08-25T03:49:22.867Z,39.03
2022-08-25T03:51:52.817Z,32.42
2022-08-25T03:54:24.033Z,30.05
2022-08-25T03:56:51.414Z,27.45
2022-08-25T03:59:18.992Z,35.33
2022-08-25T04:01:50.226Z,29.25
2022-08-25T04:04:20.559Z,40.55
2022-08-25T04:06:47.523Z,24.60
2022-08-25T04:09:14.523Z,41.38
2022-08-25T04:11:42.512Z,31.63
2022-08-25T04:14:15.803Z,28.38
2022-08-25T04:16:44.355Z,34.63
2022-08-25T04:19:12.078Z,47.30
2022-08-25T04:21:40.818Z,40.20
2022-08-25T04:24:09.949Z,34.15
2022-08-25T04:26:43.925Z,33.08
2022-08-25T04:29:12.670Z,32.88
2022-08-25T04:31:43.123Z,41.70
2022-08-25T04:34:29.664Z,42.38
2022-08-25T04:37:02.014Z,39.63
2022-08-25T04:39:29.563Z,36.00
2022-08-25T04:41:56.655Z,40.83
2022-08-25T04:44:23.762Z,36.15
2022-08-25T04:46:50.806Z,40.30
2022-08-25T04:49:18.226Z,45.17
2022-08-25T04:51:45.791Z,47.25
2022-08-25T04:54:17.039Z,39.88
2022-08-25T04:56:44.239Z,35.67
2022-08-25T04:59:14.164Z,40.55
2022-08-25T05:01:43.289Z,31.00
2022-08-25T05:04:23.442Z,39.75
2022-08-25T05:06:56.406Z,39.03
2022-08-25T05:09:25.227Z,46.78
2022-08-25T05:11:53.558Z,40.72
2022-08-25T05:14:25.573Z,36.35
2022-08-25T05:16:58.161Z,31.02
2022-08-25T05:19:26.576Z,39.42
2022-08-25T05:21:54.097Z,38.20
2022-08-25T05:24:22.382Z,31.02
2022-08-25T05:26:49.921Z,41.60
2022-08-25T05:29:17.571Z,43.05
2022-08-25T05:31:50.169Z,30.90
2022-08-25T05:34:19.565Z,35.00
2022-08-25T05:36:47.297Z,42.50
2022-08-25T05:39:14.814Z,32.22
2022-08-25T05:41:41.932Z,35.40
2022-08-25T05:44:09.041Z,38.45
2022-08-25T05:46:36.071Z,57.45
2022-08-25T05:49:03.071Z,34.15
2022-08-25T05:51:30.177Z,46.85
2022-08-25T05:53:57.104Z,40.60
2022-08-25T05:56:24.146Z,52.22
2022-08-25T05:58:51.396Z,37.47
2022-08-25T06:01:46.547Z,35.83
2022-08-25T06:04:18.094Z,54.75
2022-08-25T06:06:45.176Z,26.75
2022-08-25T06:09:12.148Z,32.15
2022-08-25T06:11:40.708Z,29.83
2022-08-25T06:14:11.359Z,36.83
2022-08-25T06:16:39.443Z,36.65
2022-08-25T06:19:09.080Z,34.72
2022-08-25T06:21:39.238Z,30.27
2022-08-25T06:24:09.228Z,18.65
2022-08-25T06:26:39.250Z,24.67
2022-08-25T06:29:06.243Z,27.35
2022-08-25T06:31:33.464Z,19.15
2022-08-25T06:34:00.537Z,24.95
2022-08-25T06:36:27.472Z,23.52
2022-08-25T06:38:54.398Z,17.95
2022-08-25T06:41:21.375Z,21.52
2022-08-25T06:43:51.830Z,15.20
2022-08-25T06:46:35.665Z,24.35
2022-08-25T06:49:06.319Z,16.17
2022-08-25T06:51:36.269Z,22.08
2022-08-25T06:54:05.821Z,26.08
2022-08-25T06:56:34.153Z,11.15
2022-08-25T06:59:03.323Z,16.90
2022-08-25T07:01:32.283Z,18.88
2022-08-25T07:04:02.391Z,12.30
2022-08-25T07:06:31.929Z,17.02
2022-08-25T07:08:59.452Z,15.63
2022-08-25T07:11:26.847Z,29.08
2022-08-25T07:13:54.169Z,11.80
2022-08-25T07:16:21.757Z,21.75
2022-08-25T07:18:49.619Z,16.85
2022-08-25T07:21:17.499Z,16.05
2022-08-25T07:23:47.155Z,27.67
2022-08-25T07:29:09.588Z,16.80
2022-08-25T07:31:37.514Z,19.95
2022-08-25T07:34:24.153Z,26.05
2022-08-25T07:36:53.806Z,10.13
2022-08-25T07:39:22.128Z,7.97
2022-08-25T07:41:52.442Z,13.10
2022-08-25T07:44:21.782Z,13.00
2022-08-25T07:46:50.347Z,16.25
2022-08-25T07:49:23.570Z,12.02
2022-08-25T07:52:05.437Z,15.40
2022-08-25T07:54:35.559Z,16.10
2022-08-25T07:57:09.053Z,20.17
2022-08-25T07:59:40.937Z,13.57
2022-08-25T08:02:18.965Z,11.23
2022-08-25T08:04:52.454Z,11.27
2022-08-25T08:07:42.110Z,11.95
2022-08-25T08:13:01.046Z,10.43
2022-08-25T08:15:29.609Z,11.30
2022-08-25T08:17:59.350Z,15.35
2022-08-25T08:20:27.317Z,14.95
2022-08-25T08:22:55.280Z,14.00
2022-08-25T08:25:27.590Z,11.50
2022-08-25T08:27:56.015Z,20.05
2022-08-25T08:30:26.210Z,9.93
2022-08-25T08:33:11.434Z,10.75
2022-08-25T08:35:41.221Z,10.88
2022-08-25T08:38:14.747Z,9.70
2022-08-25T08:41:14.640Z,11.95
2022-08-25T08:43:43.879Z,12.25
2022-08-25T08:46:11.397Z,15.75
2022-08-25T08:48:59.148Z,13.32
2022-08-25T08:51:33.539Z,13.88
2022-08-25T08:54:30.001Z,6.20
2022-08-25T08:57:15.550Z,8.88
2022-08-25T08:59:55.001Z,15.90
2022-08-25T09:02:37.923Z,6.05
2022-08-25T09:05:15.091Z,11.23
2022-08-25T09:07:48.536Z,10.55
2022-08-25T09:10:23.488Z,11.43
2022-08-25T09:13:19.863Z,11.57
2022-08-25T09:16:20.644Z,10.98
2022-08-25T09:19:23.424Z,10.82
2022-08-25T09:21:59.817Z,9.85
2022-08-25T09:24:42.358Z,11.93
2022-08-25T09:27:41.774Z,12.85
2022-08-25T09:30:21.514Z,7.30
2022-08-25T09:33:05.274Z,12.88
2022-08-25T09:35:35.660Z,6.85
2022-08-25T09:38:13.285Z,6.10
2022-08-25T09:40:46.171Z,6.95
2022-08-25T09:43:37.666Z,9.48
2022-08-25T09:46:26.866Z,16.08
2022-08-25T09:48:56.929Z,11.45
2022-08-25T09:51:38.166Z,7.50
2022-08-25T09:54:15.828Z,12.38
2022-08-25T09:56:59.478Z,11.33
2022-08-25T09:59:34.901Z,10.85
2022-08-25T10:02:06.461Z,7.30
2022-08-25T10:04:40.044Z,6.85
2022-08-25T10:07:52.055Z,8.73
2022-08-25T10:10:28.727Z,8.88
2022-08-25T10:13:01.932Z,9.07
2022-08-25T10:15:36.134Z,7.28
2022-08-25T10:18:26.301Z,12.55
2022-08-25T10:21:14.954Z,11.27
2022-08-25T10:23:52.843Z,10.02
2022-08-25T10:26:35.243Z,8.30
2022-08-25T10:29:20.475Z,12.95
2022-08-25T10:32:30.902Z,10.32
2022-08-25T10:35:03.497Z,5.60
2022-08-25T10:37:52.682Z,9.25
2022-08-25T10:40:28.872Z,8.30
2022-08-25T10:43:08.559Z,12.75
2022-08-25T10:45:45.863Z,6.32
2022-08-25T10:48:25.642Z,10.65
2022-08-25T10:51:01.269Z,8.30
2022-08-25T10:53:34.171Z,9.05
2022-08-25T10:56:22.630Z,8.52
2022-08-25T10:59:13.489Z,8.15
2022-08-25T11:01:45.292Z,8.38
2022-08-25T11:04:31.337Z,7.53
2022-08-25T11:07:19.715Z,8.43
2022-08-25T11:09:51.147Z,8.07
2022-08-25T11:12:25.801Z,10.07
2022-08-25T11:14:57.878Z,7.20
2022-08-25T11:17:38.899Z,17.05
2022-08-25T11:20:19.953Z,9.32
2022-08-25T11:23:14.913Z,10.30
2022-08-25T11:25:51.452Z,8.82
2022-08-25T11:29:01.189Z,11.15
2022-08-25T11:31:28.863Z,17.60
2022-08-25T11:33:58.165Z,10.27
2022-08-25T11:36:36.939Z,7.45
2022-08-25T11:39:13.012Z,14.55
2022-08-25T11:42:25.916Z,12.32
2022-08-25T11:45:17.591Z,15.63
2022-08-25T11:48:13.172Z,10.95
2022-08-25T11:50:55.720Z,9.25
2022-08-25T11:53:28.950Z,10.52
2022-08-25T11:56:07.679Z,11.80
2022-08-25T11:58:49.865Z,10.07
2022-08-25T12:01:32.750Z,15.15
2022-08-25T12:04:44.879Z,13.45
2022-08-25T12:07:17.482Z,18.15
2022-08-25T12:09:51.513Z,11.52
2022-08-25T12:12:32.449Z,12.68
2022-08-25T12:15:33.604Z,8.93
2022-08-25T12:18:35.506Z,14.70
2022-08-25T12:21:04.070Z,11.75
2022-08-25T12:24:13.945Z,9.45
2022-08-25T12:27:00.904Z,9.65
2022-08-25T12:30:15.591Z,8.45
2022-08-25T12:32:49.183Z,13.85
2022-08-25T12:35:30.311Z,20.25
2022-08-25T12:38:19.149Z,12.32
2022-08-25T12:40:46.020Z,7.07
2022-08-25T12:43:26.779Z,11.00
2022-08-25T12:46:19.911Z,8.68
2022-08-25T12:49:01.951Z,11.38
2022-08-25T12:51:48.459Z,9.65
2022-08-25T12:54:27.840Z,14.63
2022-08-25T12:57:03.148Z,10.10
2022-08-25T12:59:49.935Z,11.18
2022-08-25T13:02:51.594Z,14.13
2022-08-25T13:05:37.649Z,13.25
2022-08-25T13:08:07.583Z,12.38
2022-08-25T13:11:04.934Z,10.65
2022-08-25T13:13:40.601Z,14.32
2022-08-25T13:16:16.282Z,14.05
2022-08-25T13:18:45.261Z,12.90
2022-08-25T13:21:20.236Z,14.40
2022-08-25T13:23:50.801Z,10.40
2022-08-25T13:26:27.024Z,13.25
2022-08-25T13:29:00.189Z,10.52
2022-08-25T13:31:29.832Z,7.88
2022-08-25T13:34:08.243Z,10.68
2022-08-25T13:37:02.275Z,9.68
2022-08-25T13:39:54.874Z,15.93
2022-08-25T13:42:20.495Z,15.77
2022-08-25T13:44:55.221Z,8.10
2022-08-25T13:47:45.153Z,10.63
2022-08-25T13:50:31.327Z,14.48
2022-08-25T13:53:11.558Z,17.10
2022-08-25T13:55:51.720Z,13.38
2022-08-25T13:58:44.283Z,10.40
2022-08-25T14:01:23.307Z,15.07
2022-08-25T14:04:50.477Z,12.23
2022-08-25T14:07:22.580Z,14.30
2022-08-25T14:09:58.475Z,14.48
2022-08-25T14:12:45.030Z,12.50
2022-08-25T14:15:34.037Z,12.43
2022-08-25T14:18:30.849Z,15.63
2022-08-25T14:21:07.671Z,13.70
2022-08-25T14:23:37.237Z,14.68
2022-08-25T14:26:04.797Z,10.85
2022-08-25T14:28:34.173Z,17.40
2022-08-25T14:31:15.339Z,10.35
2022-08-25T14:33:52.026Z,9.15
2022-08-25T14:36:20.967Z,9.85
2022-08-25T14:38:54.537Z,17.15
2022-08-25T14:41:24.078Z,17.63
2022-08-25T14:43:51.151Z,12.93
2022-08-25T14:46:30.816Z,10.75
2022-08-25T14:49:05.099Z,12.88
2022-08-25T14:51:34.046Z,12.30
2022-08-25T14:54:07.543Z,15.27
2022-08-25T14:56:35.951Z,14.52
2022-08-25T14:59:04.912Z,15.45
2022-08-25T15:01:32.025Z,11.68
2022-08-25T15:04:27.708Z,18.98
2022-08-25T15:07:02.836Z,18.83
2022-08-25T15:09:33.574Z,17.25
2022-08-25T15:12:01.079Z,14.90
2022-08-25T15:14:28.903Z,29.30
2022-08-25T15:17:01.604Z,19.55
2022-08-25T15:19:29.440Z,23.08
2022-08-25T15:21:58.148Z,13.18
2022-08-25T15:24:27.959Z,19.92
2022-08-25T15:26:58.734Z,20.73
2022-08-25T15:29:29.933Z,23.23
2022-08-25T15:31:58.939Z,17.77
2022-08-25T15:34:26.403Z,20.50
2022-08-25T15:36:53.686Z,27.75
2022-08-25T15:39:20.830Z,9.98
2022-08-25T15:41:54.499Z,14.88
2022-08-25T15:44:25.079Z,14.10
2022-08-25T15:46:56.383Z,19.97
2022-08-25T15:49:24.182Z,17.20
2022-08-25T15:51:53.064Z,25.80
2022-08-25T15:54:23.605Z,26.52
2022-08-25T15:56:54.219Z,15.20
2022-08-25T15:59:22.528Z,18.45
2022-08-25T16:01:55.512Z,19.40
2022-08-25T16:04:24.408Z,20.30
2022-08-25T16:06:52.136Z,19.77
2022-08-25T16:09:23.008Z,18.75
2022-08-25T16:11:57.172Z,17.50
2022-08-25T16:14:27.840Z,32.03
2022-08-25T16:16:58.005Z,25.55
2022-08-25T16:19:28.151Z,18.83
2022-08-25T16:21:55.217Z,17.95
2022-08-25T16:24:22.357Z,18.23
2022-08-25T16:26:50.346Z,21.48
2022-08-25T16:29:19.988Z,19.60
2022-08-25T16:31:53.218Z,19.48
2022-08-25T16:34:24.799Z,26.50
2022-08-25T16:36:55.802Z,31.50
2022-08-25T16:39:24.011Z,20.98
2022-08-25T16:41:52.332Z,25.83
2022-08-25T16:44:22.511Z,23.02
2022-08-25T16:46:54.397Z,27.42
2022-08-25T16:49:24.249Z,20.20
2022-08-25T16:51:57.169Z,32.15
2022-08-25T16:54:44.488Z,25.83
2022-08-25T16:57:12.000Z,23.05
2022-08-25T16:59:38.998Z,23.25
2022-08-25T17:02:06.762Z,20.75
2022-08-25T17:04:33.882Z,34.08
2022-08-25T17:07:01.872Z,20.38
2022-08-25T17:09:29.709Z,25.75
2022-08-25T17:11:57.417Z,26.73
2022-08-25T17:14:25.173Z,25.15
2022-08-25T17:16:55.265Z,24.08
2022-08-25T17:19:25.053Z,29.92
2022-08-25T17:21:53.871Z,22.48
2022-08-25T17:24:21.743Z,27.98
2022-08-25T17:26:57.010Z,27.77
2022-08-25T17:29:24.722Z,23.45
2022-08-25T17:31:52.025Z,25.17
2022-08-25T17:34:23.157Z,28.88
2022-08-25T17:36:51.999Z,21.15
2022-08-25T17:39:22.250Z,28.52
2022-08-25T17:41:50.745Z,37.80
2022-08-25T17:44:19.435Z,29.58
2022-08-25T17:46:47.997Z,25.75
2022-08-25T17:49:16.567Z,27.75
2022-08-25T17:51:43.621Z,25.52
2022-08-25T17:54:12.374Z,19.77
2022-08-25T17:56:39.933Z,27.45
2022-08-25T17:59:07.618Z,26.00
2022-08-25T18:01:40.418Z,27.85
2022-08-25T18:04:14.267Z,28.10
2022-08-25T18:06:48.655Z,21.70
2022-08-25T18:09:17.496Z,25.98
2022-08-25T18:11:45.698Z,31.38
2022-08-25T18:14:14.474Z,22.67
2022-08-25T18:16:42.145Z,27.73
2022-08-25T18:19:10.949Z,27.65
2022-08-25T18:21:38.916Z,37.03
2022-08-25T18:24:08.048Z,26.38
2022-08-25T18:26:35.813Z,33.10
2022-08-25T18:29:03.244Z,28.25
2022-08-25T18:31:30.998Z,26.55
2022-08-25T18:33:59.417Z,33.53
2022-08-25T18:36:26.390Z,44.38
2022-08-25T18:39:13.644Z,36.35
2022-08-25T18:41:42.684Z,30.02
2022-08-25T18:44:12.479Z,27.40
2022-08-25T18:46:42.841Z,26.55
2022-08-25T18:49:12.548Z,32.70
2022-08-25T18:51:45.685Z,21.10
2022-08-25T18:54:22.370Z,30.40
2022-08-25T18:56:51.972Z,28.45
2022-08-25T18:59:20.202Z,23.90
2022-08-25T19:01:51.787Z,25.77
2022-08-25T19:04:18.854Z,25.55
2022-08-25T19:06:45.906Z,26.58
2022-08-25T19:09:13.600Z,25.63
2022-08-25T19:11:43.388Z,29.67
2022-08-25T19:14:12.659Z,32.42
2022-08-25T19:16:41.592Z,32.28
2022-08-25T19:19:12.606Z,42.35
2022-08-25T19:21:41.341Z,27.17
2022-08-25T19:24:11.167Z,42.53
2022-08-25T19:26:38.955Z,31.25
2022-08-25T19:29:10.642Z,41.78
2022-08-25T19:31:39.625Z,33.45
2022-08-25T19:34:08.871Z,46.40
2022-08-25T19:36:36.174Z,36.33
2022-08-25T19:39:06.940Z,34.53
2022-08-25T19:41:34.354Z,25.35
2022-08-25T19:44:03.112Z,40.22
2022-08-25T19:46:37.479Z,48.20
2022-08-25T19:49:08.810Z,31.20
2022-08-25T19:51:44.072Z,40.20
2022-08-25T19:54:17.740Z,33.85
2022-08-25T19:56:54.855Z,47.55
2022-08-25T19:59:40.618Z,42.97
2022-08-25T20:02:17.219Z,43.75
2022-08-25T20:04:49.587Z,41.10
2022-08-25T20:07:20.230Z,44.13
2022-08-25T20:09:48.372Z,37.17
2022-08-25T20:14:48.979Z,42.25
2022-08-25T20:17:23.726Z,45.15
2022-08-25T20:19:54.405Z,35.95
2022-08-25T20:22:25.840Z,40.55
2022-08-25T20:24:57.538Z,45.38
2022-08-25T20:27:32.315Z,56.00
2022-08-25T20:30:02.623Z,33.13
2022-08-25T20:32:33.867Z,39.35
2022-08-25T20:35:02.066Z,41.88
2022-08-25T20:37:31.193Z,41.33
2022-08-25T20:40:01.073Z,58.38
2022-08-25T20:42:28.265Z,38.97
2022-08-25T20:44:55.340Z,35.00
2022-08-25T20:47:22.790Z,38.70
2022-08-25T20:49:50.311Z,40.58
2022-08-25T20:52:18.525Z,39.58
2022-08-25T20:54:46.912Z,45.53
2022-08-25T20:57:25.716Z,53.45
2022-08-25T20:59:54.895Z,41.75
2022-08-25T21:02:23.287Z,38.13
2022-08-25T21:04:50.774Z,34.67
2022-08-25T21:07:18.682Z,35.45
2022-08-25T21:09:46.709Z,36.15
2022-08-25T21:12:14.551Z,37.63
2022-08-25T21:14:42.201Z,50.50
2022-08-25T21:17:12.779Z,46.03
2022-08-25T21:19:41.667Z,36.03
2022-08-25T21:22:10.667Z,37.92
2022-08-25T21:24:39.201Z,40.78
2022-08-25T21:27:06.550Z,41.75
2022-08-25T21:29:33.804Z,49.25
2022-08-25T21:32:00.869Z,39.33
2022-08-25T21:34:29.032Z,36.22
2022-08-25T21:36:58.178Z,31.45
2022-08-25T21:39:28.677Z,35.20
2022-08-25T21:41:56.639Z,34.10
2022-08-25T21:44:23.686Z,36.30
2022-08-25T21:46:54.071Z,40.65
2022-08-25T21:49:23.410Z,44.88
2022-08-25T21:52:00.505Z,41.38
2022-08-25T21:54:29.180Z,34.47
2022-08-25T21:57:02.748Z,39.40
2022-08-25T21:59:41.148Z,36.53
2022-08-25T22:02:10.689Z,42.22
2022-08-25T22:04:39.541Z,46.22
2022-08-25T22:07:08.188Z,37.08
2022-08-25T22:09:35.794Z,33.20
2022-08-25T22:12:03.926Z,39.60
2022-08-25T22:14:31.219Z,43.00
2022-08-25T22:16:58.243Z,39.25
2022-08-25T22:19:26.942Z,38.05
2022-08-25T22:21:55.239Z,36.80
2022-08-25T22:24:23.025Z,37.40
2022-08-25T22:26:55.689Z,31.70
2022-08-25T22:29:25.131Z,28.73
2022-08-25T22:31:58.677Z,31.67
2022-08-25T22:34:32.451Z,29.42
2022-08-25T22:37:01.825Z,28.70
2022-08-25T22:39:34.293Z,30.63
2022-08-25T22:42:02.967Z,33.75
2022-08-25T22:44:30.321Z,35.35
2022-08-25T22:46:57.311Z,38.45
2022-08-25T22:49:24.415Z,33.70
2022-08-25T22:51:55.090Z,30.75
2022-08-25T22:54:23.005Z,31.55
2022-08-25T22:56:50.943Z,31.35
2022-08-25T22:59:17.976Z,30.02
2022-08-25T23:01:45.670Z,29.48
2022-08-25T23:04:14.846Z,30.10
2022-08-25T23:06:44.882Z,37.08
2022-08-25T23:09:12.013Z,27.83
2022-08-25T23:11:40.057Z,43.22
2022-08-25T23:14:10.367Z,47.60
2022-08-25T23:16:42.307Z,27.88
2022-08-25T23:19:10.980Z,42.63
2022-08-25T23:22:07.942Z,42.85
2022-08-25T23:24:36.152Z,35.00
2022-08-25T23:27:05.360Z,33.70
2022-08-25T23:29:34.414Z,33.60
2022-08-25T23:32:01.547Z,39.78
2022-08-25T23:34:28.729Z,31.63
2022-08-25T23:36:56.744Z,36.03
2022-08-25T23:39:24.124Z,45.70
2022-08-25T23:41:51.868Z,33.95
2022-08-25T23:44:20.674Z,33.25
2022-08-25T23:46:49.323Z,29.85
2022-08-25T23:49:19.011Z,33.63
2022-08-25T23:51:48.689Z,33.08
2022-08-25T23:54:18.129Z,30.83
2022-08-25T23:56:51.835Z,33.42
2022-08-25T23:59:24.336Z,31.17
